sensor_id;sensor_type;location;lat;lon;timestamp;temperature;humidity
5621;DHT22;2832;50.864;12.186;2024-01-30T00:00:32;10.90;99.90
5621;DHT22;2832;50.864;12.186;2024-01-30T00:03:02;10.90;99.90
5621;DHT22;2832;50.864;12.186;2024-01-30T00:05:31;11.00;99.90
5621;DHT22;2832;50.864;12.186;2024-01-30T00:07:59;11.00;99.90
5621;DHT22;2832;50.864;12.186;2024-01-30T00:10:29;11.00;99.90
5621;DHT22;2832;50.864;12.186;2024-01-30T00:12:58;10.90;99.90
5621;DHT22;2832;50.864;12.186;2024-01-30T00:15:28;10.90;99.90
5621;DHT22;2832;50.864;12.186;2024-01-30T00:18:05;11.00;99.90
5621;DHT22;2832;50.864;12.186;2024-01-30T00:20:33;10.90;99.90
5621;DHT22;2832;50.864;12.186;2024-01-30T00:23:01;11.00;99.90
5621;DHT22;2832;50.864;12.186;2024-01-30T00:25:34;10.90;99.90
5621;DHT22;2832;50.864;12.186;2024-01-30T00:28:03;10.90;99.90
5621;DHT22;2832;50.864;12.186;2024-01-30T00:30:32;11.00;99.90
5621;DHT22;2832;50.864;12.186;2024-01-30T00:33:06;10.90;99.90
5621;DHT22;2832;50.864;12.186;2024-01-30T00:35:34;10.80;99.90
5621;DHT22;2832;50.864;12.186;2024-01-30T00:38:06;10.80;99.90
5621;DHT22;2832;50.864;12.186;2024-01-30T00:40:43;10.70;99.90
5621;DHT22;2832;50.864;12.186;2024-01-30T00:43:17;10.70;99.90
5621;DHT22;2832;50.864;12.186;2024-01-30T00:45:50;10.80;99.90
5621;DHT22;2832;50.864;12.186;2024-01-30T00:48:18;10.80;99.90
5621;DHT22;2832;50.864;12.186;2024-01-30T00:50:48;10.70;99.90
5621;DHT22;2832;50.864;12.186;2024-01-30T00:53:23;10.70;99.90
5621;DHT22;2832;50.864;12.186;2024-01-30T00:55:57;10.70;99.90
5621;DHT22;2832;50.864;12.186;2024-01-30T00:58:25;10.70;99.90
5621;DHT22;2832;50.864;12.186;2024-01-30T01:00:57;10.60;99.90
5621;DHT22;2832;50.864;12.186;2024-01-30T01:03:31;10.60;99.90
5621;DHT22;2832;50.864;12.186;2024-01-30T01:05:58;10.60;99.90
5621;DHT22;2832;50.864;12.186;2024-01-30T01:08:27;10.60;99.90
5621;DHT22;2832;50.864;12.186;2024-01-30T01:10:56;10.70;99.90
5621;DHT22;2832;50.864;12.186;2024-01-30T01:13:25;10.70;99.90
5621;DHT22;2832;50.864;12.186;2024-01-30T01:15:52;10.70;99.90
5621;DHT22;2832;50.864;12.186;2024-01-30T01:18:22;10.70;99.90
5621;DHT22;2832;50.864;12.186;2024-01-30T01:20:53;10.70;99.90
5621;DHT22;2832;50.864;12.186;2024-01-30T01:23:21;10.70;99.90
5621;DHT22;2832;50.864;12.186;2024-01-30T01:25:50;10.70;99.90
5621;DHT22;2832;50.864;12.186;2024-01-30T01:28:24;10.60;99.90
5621;DHT22;2832;50.864;12.186;2024-01-30T01:30:57;10.60;99.90
5621;DHT22;2832;50.864;12.186;2024-01-30T01:33:32;10.60;99.90
5621;DHT22;2832;50.864;12.186;2024-01-30T01:36:00;10.60;99.90
5621;DHT22;2832;50.864;12.186;2024-01-30T01:38:32;10.60;99.90
5621;DHT22;2832;50.864;12.186;2024-01-30T01:41:05;10.60;99.90
5621;DHT22;2832;50.864;12.186;2024-01-30T01:43:39;10.60;99.90
5621;DHT22;2832;50.864;12.186;2024-01-30T01:46:17;10.60;99.90
5621;DHT22;2832;50.864;12.186;2024-01-30T01:48:45;10.50;99.90
5621;DHT22;2832;50.864;12.186;2024-01-30T01:51:13;10.60;99.90
5621;DHT22;2832;50.864;12.186;2024-01-30T01:53:43;10.50;99.90
5621;DHT22;2832;50.864;12.186;2024-01-30T01:56:15;10.60;99.90
5621;DHT22;2832;50.864;12.186;2024-01-30T01:58:46;10.50;99.90
5621;DHT22;2832;50.864;12.186;2024-01-30T02:01:18;10.60;99.90
5621;DHT22;2832;50.864;12.186;2024-01-30T02:03:47;10.60;99.90
5621;DHT22;2832;50.864;12.186;2024-01-30T02:10:05;10.50;99.90
5621;DHT22;2832;50.864;12.186;2024-01-30T02:12:35;10.50;99.90
5621;DHT22;2832;50.864;12.186;2024-01-30T02:15:06;10.40;99.90
5621;DHT22;2832;50.864;12.186;2024-01-30T02:17:58;10.40;99.90
5621;DHT22;2832;50.864;12.186;2024-01-30T02:20:29;10.40;99.90
5621;DHT22;2832;50.864;12.186;2024-01-30T02:23:01;10.40;99.90
5621;DHT22;2832;50.864;12.186;2024-01-30T02:25:35;10.40;99.90
5621;DHT22;2832;50.864;12.186;2024-01-30T02:28:07;10.40;99.90
5621;DHT22;2832;50.864;12.186;2024-01-30T02:30:35;10.50;99.90
5621;DHT22;2832;50.864;12.186;2024-01-30T02:33:06;10.40;99.90
5621;DHT22;2832;50.864;12.186;2024-01-30T02:35:34;10.40;99.90
5621;DHT22;2832;50.864;12.186;2024-01-30T02:38:06;10.30;99.90
5621;DHT22;2832;50.864;12.186;2024-01-30T02:40:39;10.40;99.90
5621;DHT22;2832;50.864;12.186;2024-01-30T02:43:17;10.40;99.90
5621;DHT22;2832;50.864;12.186;2024-01-30T02:45:50;10.40;99.90
5621;DHT22;2832;50.864;12.186;2024-01-30T02:48:20;10.30;99.90
5621;DHT22;2832;50.864;12.186;2024-01-30T02:50:53;10.30;99.90
5621;DHT22;2832;50.864;12.186;2024-01-30T02:53:29;10.40;99.90
5621;DHT22;2832;50.864;12.186;2024-01-30T02:55:57;10.30;99.90
5621;DHT22;2832;50.864;12.186;2024-01-30T02:58:26;10.30;99.90
5621;DHT22;2832;50.864;12.186;2024-01-30T03:00:54;10.20;99.90
5621;DHT22;2832;50.864;12.186;2024-01-30T03:03:26;10.20;99.90
5621;DHT22;2832;50.864;12.186;2024-01-30T03:05:54;10.20;99.90
5621;DHT22;2832;50.864;12.186;2024-01-30T03:08:26;10.20;99.90
5621;DHT22;2832;50.864;12.186;2024-01-30T03:10:54;10.20;99.90
5621;DHT22;2832;50.864;12.186;2024-01-30T03:13:21;10.20;99.90
5621;DHT22;2832;50.864;12.186;2024-01-30T03:15:54;10.20;99.90
5621;DHT22;2832;50.864;12.186;2024-01-30T03:18:22;10.20;99.90
5621;DHT22;2832;50.864;12.186;2024-01-30T03:20:50;10.20;99.90
5621;DHT22;2832;50.864;12.186;2024-01-30T03:23:19;10.20;99.90
5621;DHT22;2832;50.864;12.186;2024-01-30T03:25:48;10.20;99.90
5621;DHT22;2832;50.864;12.186;2024-01-30T03:28:17;10.20;99.90
5621;DHT22;2832;50.864;12.186;2024-01-30T03:30:47;10.20;99.90
5621;DHT22;2832;50.864;12.186;2024-01-30T03:38:08;10.10;99.90
5621;DHT22;2832;50.864;12.186;2024-01-30T03:40:39;10.20;99.90
5621;DHT22;2832;50.864;12.186;2024-01-30T03:43:09;10.10;99.90
5621;DHT22;2832;50.864;12.186;2024-01-30T03:45:37;10.20;99.90
5621;DHT22;2832;50.864;12.186;2024-01-30T03:48:06;10.10;99.90
5621;DHT22;2832;50.864;12.186;2024-01-30T03:50:36;10.10;99.90
5621;DHT22;2832;50.864;12.186;2024-01-30T03:53:30;10.10;99.90
5621;DHT22;2832;50.864;12.186;2024-01-30T03:56:12;10.10;99.90
5621;DHT22;2832;50.864;12.186;2024-01-30T03:58:52;10.10;99.90
5621;DHT22;2832;50.864;12.186;2024-01-30T04:01:20;10.10;99.90
5621;DHT22;2832;50.864;12.186;2024-01-30T04:03:47;10.10;99.90
5621;DHT22;2832;50.864;12.186;2024-01-30T04:06:15;10.10;99.90
5621;DHT22;2832;50.864;12.186;2024-01-30T04:08:43;10.10;99.90
5621;DHT22;2832;50.864;12.186;2024-01-30T04:11:13;10.00;99.90
5621;DHT22;2832;50.864;12.186;2024-01-30T04:13:42;10.10;99.90
5621;DHT22;2832;50.864;12.186;2024-01-30T04:16:28;10.00;99.90
5621;DHT22;2832;50.864;12.186;2024-01-30T04:18:59;10.00;99.90
5621;DHT22;2832;50.864;12.186;2024-01-30T04:21:32;10.00;99.90
5621;DHT22;2832;50.864;12.186;2024-01-30T04:24:05;10.00;99.90
5621;DHT22;2832;50.864;12.186;2024-01-30T04:26:34;10.00;99.90
5621;DHT22;2832;50.864;12.186;2024-01-30T04:29:03;10.00;99.90
5621;DHT22;2832;50.864;12.186;2024-01-30T04:31:36;10.00;99.90
5621;DHT22;2832;50.864;12.186;2024-01-30T04:34:11;10.00;99.90
5621;DHT22;2832;50.864;12.186;2024-01-30T04:36:44;10.00;99.90
5621;DHT22;2832;50.864;12.186;2024-01-30T04:39:14;10.00;99.90
5621;DHT22;2832;50.864;12.186;2024-01-30T04:41:45;10.00;99.90
5621;DHT22;2832;50.864;12.186;2024-01-30T04:44:17;10.00;99.90
5621;DHT22;2832;50.864;12.186;2024-01-30T04:46:48;9.90;99.90
5621;DHT22;2832;50.864;12.186;2024-01-30T04:49:19;9.90;99.90
5621;DHT22;2832;50.864;12.186;2024-01-30T04:51:49;9.90;99.90
5621;DHT22;2832;50.864;12.186;2024-01-30T04:54:18;9.90;99.90
5621;DHT22;2832;50.864;12.186;2024-01-30T04:56:46;9.90;99.90
5621;DHT22;2832;50.864;12.186;2024-01-30T04:59:14;9.90;99.90
5621;DHT22;2832;50.864;12.186;2024-01-30T05:04:40;9.70;99.90
5621;DHT22;2832;50.864;12.186;2024-01-30T05:07:08;9.80;99.90
5621;DHT22;2832;50.864;12.186;2024-01-30T05:09:36;9.90;99.90
5621;DHT22;2832;50.864;12.186;2024-01-30T05:12:05;9.80;99.90
5621;DHT22;2832;50.864;12.186;2024-01-30T05:14:34;9.80;99.90
5621;DHT22;2832;50.864;12.186;2024-01-30T05:17:02;9.80;99.90
5621;DHT22;2832;50.864;12.186;2024-01-30T05:19:30;9.80;99.90
5621;DHT22;2832;50.864;12.186;2024-01-30T05:21:59;9.80;99.90
5621;DHT22;2832;50.864;12.186;2024-01-30T05:24:33;9.90;99.90
5621;DHT22;2832;50.864;12.186;2024-01-30T05:27:06;9.90;99.90
5621;DHT22;2832;50.864;12.186;2024-01-30T05:29:41;9.90;99.90
5621;DHT22;2832;50.864;12.186;2024-01-30T05:32:16;9.80;99.90
5621;DHT22;2832;50.864;12.186;2024-01-30T05:35:06;9.80;99.90
5621;DHT22;2832;50.864;12.186;2024-01-30T05:38:13;9.80;99.90
5621;DHT22;2832;50.864;12.186;2024-01-30T05:41:08;9.80;99.90
5621;DHT22;2832;50.864;12.186;2024-01-30T05:43:44;9.80;99.90
5621;DHT22;2832;50.864;12.186;2024-01-30T05:46:22;9.70;99.90
5621;DHT22;2832;50.864;12.186;2024-01-30T05:48:54;9.70;99.90
5621;DHT22;2832;50.864;12.186;2024-01-30T05:51:34;9.80;99.90
5621;DHT22;2832;50.864;12.186;2024-01-30T05:54:05;9.80;99.90
5621;DHT22;2832;50.864;12.186;2024-01-30T05:56:37;9.80;99.90
5621;DHT22;2832;50.864;12.186;2024-01-30T05:59:06;9.70;99.90
5621;DHT22;2832;50.864;12.186;2024-01-30T06:01:44;9.70;99.90
5621;DHT22;2832;50.864;12.186;2024-01-30T06:04:17;9.70;99.90
5621;DHT22;2832;50.864;12.186;2024-01-30T06:07:16;9.70;99.90
5621;DHT22;2832;50.864;12.186;2024-01-30T06:09:54;9.70;99.90
5621;DHT22;2832;50.864;12.186;2024-01-30T06:12:27;9.70;99.90
5621;DHT22;2832;50.864;12.186;2024-01-30T06:14:58;9.60;99.90
5621;DHT22;2832;50.864;12.186;2024-01-30T06:17:26;9.60;99.90
5621;DHT22;2832;50.864;12.186;2024-01-30T06:19:56;9.60;99.90
5621;DHT22;2832;50.864;12.186;2024-01-30T06:22:30;9.60;99.90
5621;DHT22;2832;50.864;12.186;2024-01-30T06:25:06;9.60;99.90
5621;DHT22;2832;50.864;12.186;2024-01-30T06:28:20;9.60;99.90
5621;DHT22;2832;50.864;12.186;2024-01-30T06:30:59;9.60;99.90
5621;DHT22;2832;50.864;12.186;2024-01-30T06:33:32;9.60;99.90
5621;DHT22;2832;50.864;12.186;2024-01-30T06:36:11;9.60;99.90
5621;DHT22;2832;50.864;12.186;2024-01-30T06:38:41;9.60;99.90
5621;DHT22;2832;50.864;12.186;2024-01-30T06:41:33;9.50;99.90
5621;DHT22;2832;50.864;12.186;2024-01-30T06:45:11;9.60;99.90
5621;DHT22;2832;50.864;12.186;2024-01-30T06:47:43;9.50;99.90
5621;DHT22;2832;50.864;12.186;2024-01-30T06:50:12;9.60;99.90
5621;DHT22;2832;50.864;12.186;2024-01-30T06:52:46;9.50;99.90
5621;DHT22;2832;50.864;12.186;2024-01-30T06:55:18;9.50;99.90
5621;DHT22;2832;50.864;12.186;2024-01-30T06:57:54;9.50;99.90
5621;DHT22;2832;50.864;12.186;2024-01-30T07:00:45;9.50;99.90
5621;DHT22;2832;50.864;12.186;2024-01-30T07:03:32;9.50;99.90
5621;DHT22;2832;50.864;12.186;2024-01-30T07:06:10;9.50;99.90
5621;DHT22;2832;50.864;12.186;2024-01-30T07:08:48;9.50;99.90
5621;DHT22;2832;50.864;12.186;2024-01-30T07:11:28;9.50;99.90
5621;DHT22;2832;50.864;12.186;2024-01-30T07:14:07;9.50;99.90
5621;DHT22;2832;50.864;12.186;2024-01-30T07:16:53;9.50;99.90
5621;DHT22;2832;50.864;12.186;2024-01-30T07:19:32;9.50;99.90
5621;DHT22;2832;50.864;12.186;2024-01-30T07:22:08;9.50;99.90
5621;DHT22;2832;50.864;12.186;2024-01-30T07:24:57;9.50;99.90
5621;DHT22;2832;50.864;12.186;2024-01-30T07:27:36;9.40;99.90
5621;DHT22;2832;50.864;12.186;2024-01-30T07:30:16;9.40;99.90
5621;DHT22;2832;50.864;12.186;2024-01-30T07:32:48;9.40;99.90
5621;DHT22;2832;50.864;12.186;2024-01-30T07:35:17;9.40;99.90
5621;DHT22;2832;50.864;12.186;2024-01-30T07:37:49;9.40;99.90
5621;DHT22;2832;50.864;12.186;2024-01-30T07:40:21;9.40;99.90
5621;DHT22;2832;50.864;12.186;2024-01-30T07:42:53;9.40;99.90
5621;DHT22;2832;50.864;12.186;2024-01-30T07:45:26;9.40;99.90
5621;DHT22;2832;50.864;12.186;2024-01-30T07:48:03;9.40;99.90
5621;DHT22;2832;50.864;12.186;2024-01-30T07:50:36;9.40;99.90
5621;DHT22;2832;50.864;12.186;2024-01-30T07:53:08;9.40;99.90
5621;DHT22;2832;50.864;12.186;2024-01-30T07:55:38;9.40;99.90
5621;DHT22;2832;50.864;12.186;2024-01-30T07:58:17;9.40;99.90
5621;DHT22;2832;50.864;12.186;2024-01-30T08:00:52;9.40;99.90
5621;DHT22;2832;50.864;12.186;2024-01-30T08:03:27;9.40;99.90
5621;DHT22;2832;50.864;12.186;2024-01-30T08:06:07;9.30;99.90
5621;DHT22;2832;50.864;12.186;2024-01-30T08:08:42;9.30;99.90
5621;DHT22;2832;50.864;12.186;2024-01-30T08:11:15;9.30;99.90
5621;DHT22;2832;50.864;12.186;2024-01-30T08:13:56;9.30;99.90
5621;DHT22;2832;50.864;12.186;2024-01-30T08:16:39;9.30;99.90
5621;DHT22;2832;50.864;12.186;2024-01-30T08:19:09;9.30;99.90
5621;DHT22;2832;50.864;12.186;2024-01-30T08:21:41;9.30;99.90
5621;DHT22;2832;50.864;12.186;2024-01-30T08:24:26;9.30;99.90
5621;DHT22;2832;50.864;12.186;2024-01-30T08:26:56;9.30;99.90
5621;DHT22;2832;50.864;12.186;2024-01-30T08:29:31;9.30;99.90
5621;DHT22;2832;50.864;12.186;2024-01-30T08:32:06;9.30;99.90
5621;DHT22;2832;50.864;12.186;2024-01-30T08:34:35;9.20;99.90
5621;DHT22;2832;50.864;12.186;2024-01-30T08:37:12;9.20;99.90
5621;DHT22;2832;50.864;12.186;2024-01-30T08:39:49;9.20;99.90
5621;DHT22;2832;50.864;12.186;2024-01-30T08:42:22;9.20;99.90
5621;DHT22;2832;50.864;12.186;2024-01-30T08:44:54;9.20;99.90
5621;DHT22;2832;50.864;12.186;2024-01-30T08:47:40;9.20;99.90
5621;DHT22;2832;50.864;12.186;2024-01-30T08:50:15;9.20;99.90
5621;DHT22;2832;50.864;12.186;2024-01-30T08:52:47;9.10;99.90
5621;DHT22;2832;50.864;12.186;2024-01-30T08:55:19;9.20;99.90
5621;DHT22;2832;50.864;12.186;2024-01-30T08:57:55;9.20;99.90
5621;DHT22;2832;50.864;12.186;2024-01-30T09:00:28;9.20;99.90
5621;DHT22;2832;50.864;12.186;2024-01-30T09:03:01;9.20;99.90
5621;DHT22;2832;50.864;12.186;2024-01-30T09:05:34;9.20;99.90
5621;DHT22;2832;50.864;12.186;2024-01-30T09:08:11;9.20;99.90
5621;DHT22;2832;50.864;12.186;2024-01-30T09:10:50;9.20;99.90
5621;DHT22;2832;50.864;12.186;2024-01-30T09:13:38;9.20;99.90
5621;DHT22;2832;50.864;12.186;2024-01-30T09:16:13;9.20;99.90
5621;DHT22;2832;50.864;12.186;2024-01-30T09:19:04;9.10;99.90
5621;DHT22;2832;50.864;12.186;2024-01-30T09:21:40;9.10;99.90
5621;DHT22;2832;50.864;12.186;2024-01-30T09:24:18;9.10;99.90
5621;DHT22;2832;50.864;12.186;2024-01-30T09:26:53;9.10;99.90
5621;DHT22;2832;50.864;12.186;2024-01-30T09:29:22;9.10;99.90
5621;DHT22;2832;50.864;12.186;2024-01-30T09:31:53;9.10;99.90
5621;DHT22;2832;50.864;12.186;2024-01-30T09:34:27;9.10;99.90
5621;DHT22;2832;50.864;12.186;2024-01-30T09:36:57;9.10;99.90
5621;DHT22;2832;50.864;12.186;2024-01-30T09:39:27;9.10;99.90
5621;DHT22;2832;50.864;12.186;2024-01-30T09:42:11;9.10;99.90
5621;DHT22;2832;50.864;12.186;2024-01-30T09:44:44;9.10;99.90
5621;DHT22;2832;50.864;12.186;2024-01-30T09:47:17;9.10;99.90
5621;DHT22;2832;50.864;12.186;2024-01-30T09:49:49;9.10;99.90
5621;DHT22;2832;50.864;12.186;2024-01-30T09:52:24;9.10;99.90
5621;DHT22;2832;50.864;12.186;2024-01-30T09:55:03;9.10;99.90
5621;DHT22;2832;50.864;12.186;2024-01-30T09:57:36;9.10;99.90
5621;DHT22;2832;50.864;12.186;2024-01-30T10:00:08;9.20;99.90
5621;DHT22;2832;50.864;12.186;2024-01-30T10:02:46;9.10;99.90
5621;DHT22;2832;50.864;12.186;2024-01-30T10:05:22;9.10;99.90
5621;DHT22;2832;50.864;12.186;2024-01-30T10:07:56;9.10;99.90
5621;DHT22;2832;50.864;12.186;2024-01-30T10:10:32;9.10;99.90
5621;DHT22;2832;50.864;12.186;2024-01-30T10:15:54;9.10;99.90
5621;DHT22;2832;50.864;12.186;2024-01-30T10:18:26;9.10;99.90
5621;DHT22;2832;50.864;12.186;2024-01-30T10:21:05;9.20;99.90
5621;DHT22;2832;50.864;12.186;2024-01-30T10:23:38;9.10;99.90
5621;DHT22;2832;50.864;12.186;2024-01-30T10:26:15;9.20;99.90
5621;DHT22;2832;50.864;12.186;2024-01-30T10:28:47;9.20;99.90
5621;DHT22;2832;50.864;12.186;2024-01-30T10:31:31;9.20;99.90
5621;DHT22;2832;50.864;12.186;2024-01-30T10:34:04;9.10;99.90
5621;DHT22;2832;50.864;12.186;2024-01-30T10:36:41;9.10;99.90
5621;DHT22;2832;50.864;12.186;2024-01-30T10:39:18;9.10;99.90
5621;DHT22;2832;50.864;12.186;2024-01-30T10:41:52;9.10;99.90
5621;DHT22;2832;50.864;12.186;2024-01-30T10:44:28;9.10;99.90
5621;DHT22;2832;50.864;12.186;2024-01-30T10:47:11;9.10;99.90
5621;DHT22;2832;50.864;12.186;2024-01-30T10:49:52;9.10;99.90
5621;DHT22;2832;50.864;12.186;2024-01-30T10:52:27;9.10;99.90
5621;DHT22;2832;50.864;12.186;2024-01-30T10:55:02;9.20;99.90
5621;DHT22;2832;50.864;12.186;2024-01-30T10:57:36;9.10;99.90
5621;DHT22;2832;50.864;12.186;2024-01-30T11:00:15;9.10;99.90
5621;DHT22;2832;50.864;12.186;2024-01-30T11:02:59;9.20;99.90
5621;DHT22;2832;50.864;12.186;2024-01-30T11:05:50;9.10;99.90
5621;DHT22;2832;50.864;12.186;2024-01-30T11:08:27;9.20;99.90
5621;DHT22;2832;50.864;12.186;2024-01-30T11:10:58;9.10;99.90
5621;DHT22;2832;50.864;12.186;2024-01-30T11:13:32;9.10;99.90
5621;DHT22;2832;50.864;12.186;2024-01-30T11:16:07;9.20;99.90
5621;DHT22;2832;50.864;12.186;2024-01-30T11:18:41;9.20;99.90
5621;DHT22;2832;50.864;12.186;2024-01-30T11:21:14;9.20;99.90
5621;DHT22;2832;50.864;12.186;2024-01-30T11:23:53;9.20;99.90
5621;DHT22;2832;50.864;12.186;2024-01-30T11:26:33;9.20;99.90
5621;DHT22;2832;50.864;12.186;2024-01-30T11:29:08;9.20;99.90
5621;DHT22;2832;50.864;12.186;2024-01-30T11:31:40;9.20;99.90
5621;DHT22;2832;50.864;12.186;2024-01-30T11:34:15;9.20;99.90
5621;DHT22;2832;50.864;12.186;2024-01-30T11:36:51;9.20;99.90
5621;DHT22;2832;50.864;12.186;2024-01-30T11:39:28;9.20;99.90
5621;DHT22;2832;50.864;12.186;2024-01-30T11:42:06;9.20;99.90
5621;DHT22;2832;50.864;12.186;2024-01-30T11:44:39;9.30;99.90
5621;DHT22;2832;50.864;12.186;2024-01-30T11:47:14;9.30;99.90
5621;DHT22;2832;50.864;12.186;2024-01-30T11:49:45;9.30;99.90
5621;DHT22;2832;50.864;12.186;2024-01-30T11:52:21;9.30;99.90
5621;DHT22;2832;50.864;12.186;2024-01-30T11:54:59;9.30;99.90
5621;DHT22;2832;50.864;12.186;2024-01-30T11:57:35;9.30;99.90
5621;DHT22;2832;50.864;12.186;2024-01-30T12:00:14;9.20;99.90
5621;DHT22;2832;50.864;12.186;2024-01-30T12:02:51;9.30;99.90
5621;DHT22;2832;50.864;12.186;2024-01-30T12:05:27;9.30;99.90
5621;DHT22;2832;50.864;12.186;2024-01-30T12:08:03;9.30;99.90
5621;DHT22;2832;50.864;12.186;2024-01-30T12:10:43;9.30;99.90
5621;DHT22;2832;50.864;12.186;2024-01-30T12:13:15;9.30;99.90
5621;DHT22;2832;50.864;12.186;2024-01-30T12:15:47;9.30;99.90
5621;DHT22;2832;50.864;12.186;2024-01-30T12:18:19;9.30;99.90
5621;DHT22;2832;50.864;12.186;2024-01-30T12:21:00;9.30;99.90
5621;DHT22;2832;50.864;12.186;2024-01-30T12:23:37;9.30;99.90
5621;DHT22;2832;50.864;12.186;2024-01-30T12:26:11;9.40;99.90
5621;DHT22;2832;50.864;12.186;2024-01-30T12:28:53;9.40;99.90
5621;DHT22;2832;50.864;12.186;2024-01-30T12:31:32;9.30;99.90
5621;DHT22;2832;50.864;12.186;2024-01-30T12:34:01;9.40;99.90
5621;DHT22;2832;50.864;12.186;2024-01-30T12:36:38;9.40;99.90
5621;DHT22;2832;50.864;12.186;2024-01-30T12:39:12;9.40;99.90
5621;DHT22;2832;50.864;12.186;2024-01-30T12:41:44;9.40;99.90
5621;DHT22;2832;50.864;12.186;2024-01-30T12:44:18;9.40;99.90
5621;DHT22;2832;50.864;12.186;2024-01-30T12:46:49;9.40;99.90
5621;DHT22;2832;50.864;12.186;2024-01-30T12:49:21;9.40;99.90
5621;DHT22;2832;50.864;12.186;2024-01-30T12:51:52;9.50;99.90
5621;DHT22;2832;50.864;12.186;2024-01-30T12:54:25;9.50;99.90
5621;DHT22;2832;50.864;12.186;2024-01-30T12:57:15;9.50;99.90
5621;DHT22;2832;50.864;12.186;2024-01-30T13:00:28;9.50;99.90
5621;DHT22;2832;50.864;12.186;2024-01-30T13:03:08;9.50;99.90
5621;DHT22;2832;50.864;12.186;2024-01-30T13:06:17;9.50;99.90
5621;DHT22;2832;50.864;12.186;2024-01-30T13:08:56;9.50;99.90
5621;DHT22;2832;50.864;12.186;2024-01-30T13:11:35;9.50;99.90
5621;DHT22;2832;50.864;12.186;2024-01-30T13:14:14;9.50;99.90
5621;DHT22;2832;50.864;12.186;2024-01-30T13:16:58;9.50;99.90
5621;DHT22;2832;50.864;12.186;2024-01-30T13:19:49;9.50;99.90
5621;DHT22;2832;50.864;12.186;2024-01-30T13:22:18;9.50;99.90
5621;DHT22;2832;50.864;12.186;2024-01-30T13:24:58;9.50;99.90
5621;DHT22;2832;50.864;12.186;2024-01-30T13:27:37;9.60;99.90
5621;DHT22;2832;50.864;12.186;2024-01-30T13:30:15;9.60;99.90
5621;DHT22;2832;50.864;12.186;2024-01-30T13:32:45;9.70;99.90
5621;DHT22;2832;50.864;12.186;2024-01-30T13:35:20;9.70;99.90
5621;DHT22;2832;50.864;12.186;2024-01-30T13:37:51;9.70;99.90
5621;DHT22;2832;50.864;12.186;2024-01-30T13:40:23;9.70;99.90
5621;DHT22;2832;50.864;12.186;2024-01-30T13:42:54;9.70;99.90
5621;DHT22;2832;50.864;12.186;2024-01-30T13:45:43;9.70;99.90
5621;DHT22;2832;50.864;12.186;2024-01-30T13:48:22;9.60;99.90
5621;DHT22;2832;50.864;12.186;2024-01-30T13:50:56;9.60;99.90
5621;DHT22;2832;50.864;12.186;2024-01-30T13:53:25;9.70;99.90
5621;DHT22;2832;50.864;12.186;2024-01-30T13:56:10;9.70;99.90
5621;DHT22;2832;50.864;12.186;2024-01-30T13:58:52;9.70;99.90
5621;DHT22;2832;50.864;12.186;2024-01-30T14:01:28;9.70;99.90
5621;DHT22;2832;50.864;12.186;2024-01-30T14:04:00;9.80;99.90
5621;DHT22;2832;50.864;12.186;2024-01-30T14:06:31;9.80;99.90
5621;DHT22;2832;50.864;12.186;2024-01-30T14:09:03;9.80;99.90
5621;DHT22;2832;50.864;12.186;2024-01-30T14:11:44;9.80;99.90
5621;DHT22;2832;50.864;12.186;2024-01-30T14:14:22;9.90;99.90
5621;DHT22;2832;50.864;12.186;2024-01-30T14:17:00;9.90;99.90
5621;DHT22;2832;50.864;12.186;2024-01-30T14:19:35;9.90;99.90
5621;DHT22;2832;50.864;12.186;2024-01-30T14:22:04;9.80;99.90
5621;DHT22;2832;50.864;12.186;2024-01-30T14:24:46;9.90;99.90
5621;DHT22;2832;50.864;12.186;2024-01-30T14:27:24;9.90;99.90
5621;DHT22;2832;50.864;12.186;2024-01-30T14:29:57;9.90;99.90
5621;DHT22;2832;50.864;12.186;2024-01-30T14:32:40;9.90;99.90
5621;DHT22;2832;50.864;12.186;2024-01-30T14:35:15;9.80;99.90
5621;DHT22;2832;50.864;12.186;2024-01-30T14:37:54;9.80;99.90
5621;DHT22;2832;50.864;12.186;2024-01-30T14:40:35;9.90;99.90
5621;DHT22;2832;50.864;12.186;2024-01-30T14:43:04;9.90;99.90
5621;DHT22;2832;50.864;12.186;2024-01-30T14:45:47;9.90;99.90
5621;DHT22;2832;50.864;12.186;2024-01-30T14:48:29;9.90;99.90
5621;DHT22;2832;50.864;12.186;2024-01-30T14:51:04;9.90;99.90
5621;DHT22;2832;50.864;12.186;2024-01-30T14:53:37;9.90;99.90
5621;DHT22;2832;50.864;12.186;2024-01-30T14:56:08;9.90;99.90
5621;DHT22;2832;50.864;12.186;2024-01-30T14:58:54;10.00;99.90
5621;DHT22;2832;50.864;12.186;2024-01-30T15:01:25;9.90;99.90
5621;DHT22;2832;50.864;12.186;2024-01-30T15:03:57;9.90;99.90
5621;DHT22;2832;50.864;12.186;2024-01-30T15:06:36;10.00;99.90
5621;DHT22;2832;50.864;12.186;2024-01-30T15:09:10;10.00;99.90
5621;DHT22;2832;50.864;12.186;2024-01-30T15:11:53;10.00;99.90
5621;DHT22;2832;50.864;12.186;2024-01-30T15:14:36;10.00;99.90
5621;DHT22;2832;50.864;12.186;2024-01-30T15:17:11;10.00;99.90
5621;DHT22;2832;50.864;12.186;2024-01-30T15:20:02;10.00;99.90
5621;DHT22;2832;50.864;12.186;2024-01-30T15:22:49;10.00;99.90
5621;DHT22;2832;50.864;12.186;2024-01-30T15:25:27;10.00;99.90
5621;DHT22;2832;50.864;12.186;2024-01-30T15:28:10;10.10;99.90
5621;DHT22;2832;50.864;12.186;2024-01-30T15:30:50;10.10;99.90
5621;DHT22;2832;50.864;12.186;2024-01-30T15:33:29;10.10;99.90
5621;DHT22;2832;50.864;12.186;2024-01-30T15:36:09;10.10;99.90
5621;DHT22;2832;50.864;12.186;2024-01-30T15:38:57;10.20;99.90
5621;DHT22;2832;50.864;12.186;2024-01-30T15:41:35;10.20;99.90
5621;DHT22;2832;50.864;12.186;2024-01-30T15:44:09;10.20;99.90
5621;DHT22;2832;50.864;12.186;2024-01-30T15:46:41;10.20;99.90
5621;DHT22;2832;50.864;12.186;2024-01-30T15:49:13;10.20;99.90
5621;DHT22;2832;50.864;12.186;2024-01-30T15:51:56;10.20;99.90
5621;DHT22;2832;50.864;12.186;2024-01-30T15:54:31;10.20;99.90
5621;DHT22;2832;50.864;12.186;2024-01-30T15:57:08;10.10;99.90
5621;DHT22;2832;50.864;12.186;2024-01-30T15:59:40;10.20;99.90
5621;DHT22;2832;50.864;12.186;2024-01-30T16:02:38;10.10;99.90
5621;DHT22;2832;50.864;12.186;2024-01-30T16:05:08;10.10;99.90
5621;DHT22;2832;50.864;12.186;2024-01-30T16:07:46;10.20;99.90
5621;DHT22;2832;50.864;12.186;2024-01-30T16:10:18;10.20;99.90
5621;DHT22;2832;50.864;12.186;2024-01-30T16:12:49;10.20;99.90
5621;DHT22;2832;50.864;12.186;2024-01-30T16:15:22;10.20;99.90
5621;DHT22;2832;50.864;12.186;2024-01-30T16:17:54;10.20;99.90
5621;DHT22;2832;50.864;12.186;2024-01-30T16:20:29;10.30;99.90
5621;DHT22;2832;50.864;12.186;2024-01-30T16:23:03;10.30;99.90
5621;DHT22;2832;50.864;12.186;2024-01-30T16:25:37;10.30;99.90
5621;DHT22;2832;50.864;12.186;2024-01-30T16:28:12;10.30;99.90
5621;DHT22;2832;50.864;12.186;2024-01-30T16:30:49;10.30;99.90
5621;DHT22;2832;50.864;12.186;2024-01-30T16:33:33;10.30;99.90
5621;DHT22;2832;50.864;12.186;2024-01-30T16:36:05;10.40;99.90
5621;DHT22;2832;50.864;12.186;2024-01-30T16:38:45;10.40;99.90
5621;DHT22;2832;50.864;12.186;2024-01-30T16:41:15;10.40;99.90
5621;DHT22;2832;50.864;12.186;2024-01-30T16:43:49;10.40;99.90
5621;DHT22;2832;50.864;12.186;2024-01-30T16:46:24;10.30;99.90
5621;DHT22;2832;50.864;12.186;2024-01-30T16:48:56;10.30;99.90
5621;DHT22;2832;50.864;12.186;2024-01-30T16:51:33;10.30;99.90
5621;DHT22;2832;50.864;12.186;2024-01-30T16:54:11;10.40;99.90
5621;DHT22;2832;50.864;12.186;2024-01-30T16:56:43;10.30;99.90
5621;DHT22;2832;50.864;12.186;2024-01-30T16:59:30;10.30;99.90